Terminal Aerodrome Forecast
Issued by NWS Twin Cities, MN

Home | Current Version | Previous Version | Graphics & Text | Print | Product List | Glossary On
Versions: 1 2 3 4 5 6 7 8 9 10 11 12 13 14 15
000
FTUS43 KMPX 252343
TAFEAU
TAF
KEAU 252343Z 2600/2624 VRB03KT P6SM SCT020 BKN100
     FM260600 18006KT P6SM SCT020 OVC060
     FM261000 18009KT 1 1/2SM -SN OVC012
     FM261600 21007KT 4SM -SN BR OVC015=

USA.gov is the U.S. government's official web portal to all federal, state and local government web resources and services.